Time;durP1;ratioP1;P1;durP2;ratioP2;P2;SDS_P1;SDS_P2;PMS_P1;PMS_P2;Temp;Humidity;BMP_temperature;BMP_pressure;BME280_temperature;BME280_humidity;BME280_pressure;Samples;Min_cycle;Max_cycle;Signal;HPM_P1;HPM_P2
2021/08/01 00:00:45;;;;;;;3.60;2.70;;;;;;;;;;5053939;28;20889;-69
2021/08/01 00:03:11;;;;;;;3.43;3.13;;;;;;;;;;5053714;28;20418;-69
2021/08/01 00:05:37;;;;;;;3.73;3.43;;;;;;;;;;5053781;28;20410;-69
2021/08/01 00:08:03;;;;;;;5.50;3.77;;;;;;;;;;5053741;28;20769;-69
2021/08/01 00:13:32;;;;;;;4.93;3.80;;;;;;;;;;5053559;28;20465;-69
2021/08/01 00:15:59;;;;;;;5.33;3.70;;;;;;;;;;5053629;28;20407;-69
2021/08/01 00:18:25;;;;;;;4.57;3.63;;;;;;;;;;5053306;28;20471;-69
2021/08/01 00:20:51;;;;;;;5.80;3.70;;;;;;;;;;5053534;28;20399;-68
2021/08/01 00:23:17;;;;;;;8.10;3.90;;;;;;;;;;5053463;28;20452;-69
2021/08/01 00:28:46;;;;;;;4.60;3.87;;;;;;;;;;5053032;28;20555;-70
2021/08/01 00:31:12;;;;;;;6.20;3.80;;;;;;;;;;5053402;28;20418;-70
2021/08/01 00:33:38;;;;;;;4.23;3.83;;;;;;;;;;5053209;28;20503;-70
2021/08/01 00:36:04;;;;;;;6.87;4.60;;;;;;;;;;5053038;28;20471;-69
2021/08/01 00:38:30;;;;;;;7.43;3.57;;;;;;;;;;5051672;28;20471;-69
2021/08/01 00:44:00;;;;;;;4.60;3.80;;;;;;;;;;5053187;28;20410;-69
2021/08/01 00:46:26;;;;;;;4.30;3.27;;;;;;;;;;5052980;28;20427;-70
2021/08/01 00:48:52;;;;;;;4.30;3.83;;;;;;;;;;5053077;28;20499;-69
2021/08/01 00:51:18;;;;;;;3.97;3.47;;;;;;;;;;5053114;28;20909;-69
2021/08/01 00:53:44;;;;;;;6.90;5.40;;;;;;;;;;5052672;28;20460;-69
2021/08/01 00:56:10;;;;;;;4.50;3.57;;;;;;;;;;5051174;28;20482;-69
2021/08/01 00:58:36;;;;;;;4.20;3.60;;;;;;;;;;5052883;28;21041;-70
2021/08/01 01:01:07;;;;;;;4.53;3.27;;;;;;;;;;5052994;28;20415;-70
2021/08/01 01:03:54;;;;;;;3.60;3.30;;;;;;;;;;5053113;28;20477;-69
2021/08/01 01:06:29;;;;;;;9.03;3.93;;;;;;;;;;5045608;28;20449;-69
2021/08/01 01:08:55;;;;;;;4.33;3.43;;;;;;;;;;5052914;28;20445;-69
2021/08/01 01:11:23;;;;;;;6.43;3.67;;;;;;;;;;5052915;28;20415;-69
2021/08/01 01:13:52;;;;;;;5.50;3.07;;;;;;;;;;5052907;28;20415;-69
2021/08/01 01:16:18;;;;;;;3.87;3.40;;;;;;;;;;5052784;28;20415;-69
2021/08/01 01:18:55;;;;;;;5.10;3.40;;;;;;;;;;5052762;28;20431;-69
2021/08/01 01:21:40;;;;;;;4.37;3.53;;;;;;;;;;5052812;28;20812;-69
2021/08/01 01:24:18;;;;;;;5.93;3.93;;;;;;;;;;5052730;28;20816;-70
2021/08/01 01:26:44;;;;;;;3.47;3.03;;;;;;;;;;5052544;28;20406;-70
2021/08/01 01:29:16;;;;;;;4.67;4.00;;;;;;;;;;5052725;28;20411;-70
2021/08/01 01:31:48;;;;;;;7.10;4.23;;;;;;;;;;5052494;28;20852;-69
2021/08/01 01:34:37;;;;;;;6.70;4.33;;;;;;;;;;5052512;28;20462;-69
2021/08/01 01:37:08;;;;;;;4.90;3.70;;;;;;;;;;5052385;28;20637;-70
2021/08/01 01:39:40;;;;;;;5.47;3.63;;;;;;;;;;5051342;28;20775;-69
2021/08/01 01:42:06;;;;;;;4.47;4.07;;;;;;;;;;5052459;28;20762;-69
2021/08/01 01:44:33;;;;;;;4.47;4.03;;;;;;;;;;5052418;28;20506;-69
2021/08/01 01:46:59;;;;;;;4.90;3.83;;;;;;;;;;5052792;28;20423;-69
2021/08/01 01:49:26;;;;;;;4.57;4.17;;;;;;;;;;5052426;28;20407;-69
2021/08/01 01:51:53;;;;;;;5.73;3.57;;;;;;;;;;5052396;28;20854;-70
2021/08/01 01:54:19;;;;;;;4.00;3.70;;;;;;;;;;5051773;28;20410;-70
2021/08/01 01:56:45;;;;;;;5.60;4.07;;;;;;;;;;5052279;28;20459;-69
2021/08/01 01:59:12;;;;;;;6.23;4.77;;;;;;;;;;5052242;28;20430;-70
2021/08/01 02:01:38;;;;;;;5.83;4.23;;;;;;;;;;5052270;28;20471;-70
2021/08/01 02:04:05;;;;;;;5.53;5.03;;;;;;;;;;5052257;28;20419;-68
2021/08/01 02:06:31;;;;;;;4.07;3.40;;;;;;;;;;5052605;28;20399;-68
2021/08/01 02:15:06;;;;;;;3.53;3.17;;;;;;;;;;5055769;28;20417;-69
2021/08/01 02:17:34;;;;;;;5.27;3.70;;;;;;;;;;5055695;28;21024;-69
2021/08/01 02:20:02;;;;;;;7.73;4.27;;;;;;;;;;5055881;28;20502;-69
2021/08/01 02:22:29;;;;;;;5.03;3.77;;;;;;;;;;5055935;28;20530;-69
2021/08/01 02:24:55;;;;;;;4.47;4.07;;;;;;;;;;5055922;28;20411;-69
2021/08/01 02:27:21;;;;;;;5.30;4.50;;;;;;;;;;5055692;28;20751;-69
2021/08/01 02:29:49;;;;;;;5.13;4.70;;;;;;;;;;5055651;28;20424;-69
2021/08/01 02:32:17;;;;;;;4.20;3.80;;;;;;;;;;5055476;28;20418;-68
2021/08/01 02:34:43;;;;;;;6.77;4.43;;;;;;;;;;5055614;28;20811;-69
2021/08/01 02:37:10;;;;;;;4.83;3.93;;;;;;;;;;5055634;28;20470;-69
2021/08/01 02:39:36;;;;;;;4.73;3.87;;;;;;;;;;5055260;28;20469;-69
2021/08/01 02:42:03;;;;;;;4.57;4.00;;;;;;;;;;5055295;28;20906;-70
2021/08/01 02:44:30;;;;;;;4.47;3.90;;;;;;;;;;5055233;28;20438;-69
2021/08/01 02:46:56;;;;;;;4.23;3.93;;;;;;;;;;5055254;28;20950;-69
2021/08/01 02:49:27;;;;;;;5.47;3.70;;;;;;;;;;5055218;28;20516;-69
2021/08/01 02:51:53;;;;;;;4.23;3.87;;;;;;;;;;5055388;28;20782;-69
2021/08/01 02:54:23;;;;;;;4.43;4.07;;;;;;;;;;5054898;28;20601;-69
2021/08/01 02:56:51;;;;;;;5.13;4.40;;;;;;;;;;5055151;28;20515;-68
2021/08/01 02:59:17;;;;;;;4.70;4.30;;;;;;;;;;5054967;28;20510;-69
2021/08/01 03:01:44;;;;;;;5.17;4.57;;;;;;;;;;5054999;28;20506;-68
2021/08/01 03:04:14;;;;;;;4.40;3.93;;;;;;;;;;5054784;28;20754;-69
2021/08/01 03:06:42;;;;;;;5.50;4.60;;;;;;;;;;5054830;28;20491;-69
2021/08/01 03:09:10;;;;;;;5.07;3.80;;;;;;;;;;5054733;28;20458;-69
2021/08/01 03:14:40;;;;;;;5.00;4.50;;;;;;;;;;5054777;28;20456;-68
2021/08/01 03:17:06;;;;;;;6.57;4.90;;;;;;;;;;5054745;28;20495;-69
2021/08/01 03:19:37;;;;;;;4.77;4.37;;;;;;;;;;5053881;28;20423;-68
2021/08/01 03:22:03;;;;;;;5.63;5.13;;;;;;;;;;5054884;28;20533;-69
2021/08/01 03:24:29;;;;;;;5.50;4.90;;;;;;;;;;5054373;28;20431;-69
2021/08/01 03:26:55;;;;;;;6.13;4.00;;;;;;;;;;5054545;28;20411;-69
2021/08/01 03:29:21;;;;;;;5.53;3.93;;;;;;;;;;5054450;28;20415;-69
2021/08/01 03:31:47;;;;;;;4.40;4.00;;;;;;;;;;5053980;28;20857;-68
2021/08/01 03:34:13;;;;;;;6.50;4.80;;;;;;;;;;5054258;28;20531;-69
2021/08/01 03:36:39;;;;;;;5.80;5.30;;;;;;;;;;5054487;28;20419;-69
2021/08/01 03:39:05;;;;;;;4.13;3.80;;;;;;;;;;5054150;28;20404;-69
2021/08/01 03:44:34;;;;;;;4.37;3.97;;;;;;;;;;5054155;28;20433;-70
2021/08/01 03:47:00;;;;;;;4.83;4.33;;;;;;;;;;5054130;28;20496;-70
2021/08/01 03:49:26;;;;;;;4.70;4.30;;;;;;;;;;5054112;28;20478;-70
2021/08/01 03:51:52;;;;;;;5.37;4.83;;;;;;;;;;5053971;28;20431;-69
2021/08/01 03:54:18;;;;;;;5.23;4.83;;;;;;;;;;5053730;28;20411;-69
2021/08/01 03:59:48;;;;;;;6.33;4.23;;;;;;;;;;5053906;28;20418;-68
2021/08/01 04:02:14;;;;;;;5.03;4.53;;;;;;;;;;5053584;28;20427;-70
2021/08/01 04:04:40;;;;;;;4.87;4.37;;;;;;;;;;5053760;28;20411;-69
2021/08/01 04:07:06;;;;;;;6.67;4.10;;;;;;;;;;5053656;28;20913;-69
2021/08/01 04:09:32;;;;;;;4.77;4.37;;;;;;;;;;5053418;28;20448;-69
2021/08/01 04:15:02;;;;;;;5.23;4.30;;;;;;;;;;5053534;28;20793;-69
2021/08/01 04:17:29;;;;;;;5.17;4.20;;;;;;;;;;5053243;28;20983;-69
2021/08/01 04:19:55;;;;;;;3.87;3.60;;;;;;;;;;5052178;28;20510;-69
2021/08/01 04:22:21;;;;;;;4.23;3.93;;;;;;;;;;5053055;28;20518;-70
2021/08/01 04:24:47;;;;;;;4.33;3.93;;;;;;;;;;5053380;28;20932;-68
2021/08/01 04:27:13;;;;;;;6.80;5.37;;;;;;;;;;5053261;28;20821;-69
2021/08/01 04:29:39;;;;;;;5.37;4.20;;;;;;;;;;5052958;28;20411;-69
2021/08/01 04:32:05;;;;;;;5.30;4.80;;;;;;;;;;5052669;28;20411;-68
2021/08/01 04:34:31;;;;;;;4.20;3.90;;;;;;;;;;5053171;28;20778;-69
2021/08/01 04:36:57;;;;;;;4.60;4.17;;;;;;;;;;5052992;28;20555;-69
2021/08/01 04:39:23;;;;;;;4.83;4.40;;;;;;;;;;5052906;28;20419;-69
2021/08/01 04:44:53;;;;;;;4.30;3.77;;;;;;;;;;5052999;28;20406;-69
2021/08/01 04:47:19;;;;;;;5.17;3.63;;;;;;;;;;5053127;28;20407;-69
2021/08/01 04:49:45;;;;;;;4.33;3.93;;;;;;;;;;5053076;28;20431;-69
2021/08/01 04:52:18;;;;;;;3.83;3.57;;;;;;;;;;5052881;28;20477;-69
2021/08/01 04:54:45;;;;;;;4.30;4.00;;;;;;;;;;5053218;28;20427;-68
2021/08/01 05:00:15;;;;;;;4.40;4.00;;;;;;;;;;5053002;28;20469;-69
2021/08/01 05:02:41;;;;;;;5.27;3.87;;;;;;;;;;5052805;28;20438;-69
2021/08/01 05:05:07;;;;;;;4.27;3.87;;;;;;;;;;5052869;28;20433;-70
2021/08/01 05:07:33;;;;;;;5.53;4.27;;;;;;;;;;5052717;28;20954;-70
2021/08/01 05:15:48;;;;;;;4.23;3.83;;;;;;;;;;5052723;28;20406;-69
2021/08/01 05:18:14;;;;;;;4.20;3.80;;;;;;;;;;5051357;28;20478;-69
2021/08/01 05:20:41;;;;;;;4.10;3.60;;;;;;;;;;5052784;28;20403;-69
2021/08/01 05:23:07;;;;;;;5.47;4.93;;;;;;;;;;5052653;28;20418;-70
2021/08/01 05:25:33;;;;;;;3.30;3.00;;;;;;;;;;5052634;28;20819;-70
2021/08/01 05:27:59;;;;;;;4.40;4.00;;;;;;;;;;5052577;28;20422;-70
2021/08/01 05:30:25;;;;;;;4.57;3.57;;;;;;;;;;5052706;28;20415;-70
2021/08/01 05:32:51;;;;;;;4.33;3.93;;;;;;;;;;5052295;28;20457;-70
2021/08/01 05:35:17;;;;;;;10.03;3.90;;;;;;;;;;5052503;28;20473;-68
2021/08/01 05:37:43;;;;;;;4.50;4.10;;;;;;;;;;5052360;28;20502;-69
2021/08/01 05:40:10;;;;;;;3.90;3.47;;;;;;;;;;5052667;28;20450;-69
2021/08/01 05:45:40;;;;;;;4.20;3.80;;;;;;;;;;5056465;28;20480;-68
2021/08/01 05:48:06;;;;;;;4.83;4.00;;;;;;;;;;5056361;28;20417;-69
2021/08/01 05:50:32;;;;;;;4.13;3.73;;;;;;;;;;5056504;28;20447;-68
2021/08/01 05:52:58;;;;;;;5.23;3.27;;;;;;;;;;5056157;28;20407;-70
2021/08/01 05:55:24;;;;;;;6.70;5.93;;;;;;;;;;5054933;28;20474;-70
2021/08/01 05:57:50;;;;;;;5.83;3.67;;;;;;;;;;5056021;28;20517;-70
2021/08/01 06:00:16;;;;;;;4.17;3.43;;;;;;;;;;5056370;28;20948;-69
2021/08/01 06:02:42;;;;;;;4.83;3.83;;;;;;;;;;5056008;28;20415;-69
2021/08/01 06:05:08;;;;;;;3.83;3.50;;;;;;;;;;5056022;28;20889;-69
2021/08/01 06:07:34;;;;;;;5.00;4.03;;;;;;;;;;5055668;28;20415;-69
2021/08/01 06:10:00;;;;;;;4.73;3.70;;;;;;;;;;5055886;28;20497;-69
2021/08/01 06:15:30;;;;;;;3.97;3.50;;;;;;;;;;5055933;28;20526;-70
2021/08/01 06:17:56;;;;;;;3.97;3.37;;;;;;;;;;5055827;28;20980;-70
2021/08/01 06:20:22;;;;;;;4.90;3.93;;;;;;;;;;5055864;28;20439;-71
2021/08/01 06:22:48;;;;;;;3.87;3.50;;;;;;;;;;5055800;28;20423;-69
2021/08/01 06:25:14;;;;;;;4.20;3.90;;;;;;;;;;5056040;28;20453;-72
2021/08/01 06:27:40;;;;;;;4.30;4.00;;;;;;;;;;5055597;28;20411;-70
2021/08/01 06:30:06;;;;;;;4.70;3.73;;;;;;;;;;5055712;28;20473;-70
2021/08/01 06:32:32;;;;;;;5.07;4.57;;;;;;;;;;5054134;28;20447;-70
2021/08/01 06:34:58;;;;;;;5.10;4.60;;;;;;;;;;5055644;28;20489;-70
2021/08/01 06:37:24;;;;;;;4.33;3.70;;;;;;;;;;5055104;28;20463;-70
2021/08/01 06:39:50;;;;;;;5.13;4.27;;;;;;;;;;5055411;28;20421;-70
2021/08/01 06:42:16;;;;;;;5.00;4.53;;;;;;;;;;5055385;28;20430;-70
2021/08/01 06:44:42;;;;;;;4.50;4.00;;;;;;;;;;5055327;28;20441;-70
2021/08/01 06:47:08;;;;;;;5.37;4.37;;;;;;;;;;5055302;28;20425;-70
2021/08/01 06:49:34;;;;;;;5.43;5.00;;;;;;;;;;5054438;28;20506;-71
2021/08/01 06:52:00;;;;;;;6.20;4.07;;;;;;;;;;5055010;28;20422;-71
2021/08/01 06:54:26;;;;;;;6.17;3.90;;;;;;;;;;5053453;28;20416;-70
2021/08/01 06:56:52;;;;;;;5.20;4.07;;;;;;;;;;5051888;28;20454;-71
2021/08/01 06:59:18;;;;;;;5.97;4.20;;;;;;;;;;5054615;28;20419;-71
2021/08/01 07:01:44;;;;;;;4.23;3.87;;;;;;;;;;5054577;28;20433;-70
2021/08/01 07:04:10;;;;;;;5.20;4.70;;;;;;;;;;5054465;28;20427;-70
2021/08/01 07:06:36;;;;;;;4.60;4.20;;;;;;;;;;5054572;28;20415;-70
2021/08/01 07:09:02;;;;;;;4.20;3.90;;;;;;;;;;5054380;28;20435;-71
2021/08/01 07:11:28;;;;;;;4.30;3.97;;;;;;;;;;5054382;28;20886;-71
2021/08/01 07:13:54;;;;;;;4.23;3.90;;;;;;;;;;5054451;28;20421;-71
2021/08/01 07:16:20;;;;;;;6.53;4.30;;;;;;;;;;5054386;28;20403;-71
2021/08/01 07:18:46;;;;;;;4.90;3.83;;;;;;;;;;5054329;28;20466;-70
2021/08/01 07:21:12;;;;;;;4.13;3.70;;;;;;;;;;5054290;28;20411;-71
2021/08/01 07:23:38;;;;;;;8.50;4.47;;;;;;;;;;5054197;28;20521;-70
2021/08/01 07:26:04;;;;;;;4.50;4.00;;;;;;;;;;5054058;28;20465;-70
2021/08/01 07:28:32;;;;;;;5.00;3.40;;;;;;;;;;5054155;28;20442;-70
2021/08/01 07:30:58;;;;;;;4.00;3.60;;;;;;;;;;5054002;28;20419;-69
2021/08/01 07:33:26;;;;;;;6.10;4.37;;;;;;;;;;5053932;28;20909;-69
2021/08/01 07:35:52;;;;;;;7.23;4.10;;;;;;;;;;5053741;28;20515;-68
2021/08/01 07:38:18;;;;;;;4.73;4.40;;;;;;;;;;5053663;28;20478;-68
2021/08/01 07:40:43;;;;;;;4.40;4.03;;;;;;;;;;5052939;28;20917;-70
2021/08/01 07:46:13;;;;;;;5.17;4.47;;;;;;;;;;5053905;28;20422;-70
2021/08/01 07:48:39;;;;;;;4.80;4.40;;;;;;;;;;5054031;28;20487;-70
2021/08/01 07:51:05;;;;;;;6.53;4.37;;;;;;;;;;5054182;28;20565;-71
2021/08/01 07:53:31;;;;;;;4.53;4.13;;;;;;;;;;5053874;28;20411;-70
2021/08/01 07:55:57;;;;;;;10.53;4.97;;;;;;;;;;5054190;28;20434;-70
2021/08/01 08:01:26;;;;;;;6.57;4.50;;;;;;;;;;5053876;28;20504;-70
2021/08/01 08:03:52;;;;;;;4.27;3.87;;;;;;;;;;5053741;28;20418;-71
2021/08/01 08:06:18;;;;;;;4.90;4.00;;;;;;;;;;5053494;28;20804;-70
2021/08/01 08:08:45;;;;;;;5.10;4.47;;;;;;;;;;5053706;28;20415;-71
2021/08/01 08:11:11;;;;;;;4.97;3.90;;;;;;;;;;5054064;28;20415;-80
2021/08/01 08:16:41;;;;;;;11.90;5.00;;;;;;;;;;5053478;28;20410;-80
2021/08/01 08:19:07;;;;;;;4.90;4.40;;;;;;;;;;5053512;28;20506;-80
2021/08/01 08:21:33;;;;;;;5.23;4.40;;;;;;;;;;5052400;28;20447;-79
2021/08/01 08:23:59;;;;;;;4.50;4.17;;;;;;;;;;5051260;28;20443;-78
2021/08/01 08:26:25;;;;;;;4.87;4.17;;;;;;;;;;5051711;28;20411;-80
2021/08/01 08:28:51;;;;;;;4.80;4.40;;;;;;;;;;5052087;28;20412;-81
2021/08/01 08:31:17;;;;;;;4.93;4.20;;;;;;;;;;5052126;28;20968;-80
2021/08/01 08:33:43;;;;;;;5.77;5.27;;;;;;;;;;5051959;28;20521;-81
2021/08/01 08:36:09;;;;;;;4.13;3.73;;;;;;;;;;5052350;28;20407;-78
2021/08/01 08:38:35;;;;;;;4.80;4.37;;;;;;;;;;5051906;28;20475;-78
2021/08/01 08:41:01;;;;;;;4.67;4.27;;;;;;;;;;5052054;28;20415;-77
2021/08/01 08:46:30;;;;;;;5.20;4.70;;;;;;;;;;5052200;28;20433;-79
2021/08/01 08:48:57;;;;;;;5.20;4.37;;;;;;;;;;5052211;28;20419;-75
2021/08/01 08:51:25;;;;;;;5.50;3.63;;;;;;;;;;5051349;28;20415;-80
2021/08/01 08:53:53;;;;;;;9.03;5.10;;;;;;;;;;5051791;28;20419;-80
2021/08/01 08:56:19;;;;;;;6.00;5.40;;;;;;;;;;5051458;28;20414;-79
2021/08/01 09:01:49;;;;;;;6.10;4.30;;;;;;;;;;5051510;28;20935;-77
2021/08/01 09:04:15;;;;;;;6.07;4.20;;;;;;;;;;5050652;28;20431;-79
2021/08/01 09:06:41;;;;;;;3.40;3.10;;;;;;;;;;5054186;28;20411;-72
2021/08/01 09:09:09;;;;;;;3.37;3.07;;;;;;;;;;5061730;28;20419;-78
2021/08/01 09:11:35;;;;;;;3.77;3.47;;;;;;;;;;5052477;28;20430;-80
2021/08/01 09:17:05;;;;;;;5.10;4.07;;;;;;;;;;5053107;28;20461;-81
2021/08/01 09:19:39;;;;;;;4.43;4.07;;;;;;;;;;5055974;28;20425;-77
2021/08/01 09:22:18;;;;;;;6.50;4.27;;;;;;;;;;5056111;28;20422;-80
2021/08/01 09:24:45;;;;;;;5.10;4.20;;;;;;;;;;5056079;28;20769;-79
2021/08/01 09:27:27;;;;;;;4.33;3.90;;;;;;;;;;5055543;28;20898;-80
2021/08/01 09:29:53;;;;;;;5.20;4.63;;;;;;;;;;5055909;28;20422;-78
2021/08/01 09:32:19;;;;;;;4.50;4.20;;;;;;;;;;5056081;28;20741;-79
2021/08/01 09:34:47;;;;;;;5.10;4.43;;;;;;;;;;5055340;28;20470;-77
2021/08/01 09:37:13;;;;;;;5.47;4.80;;;;;;;;;;5055591;28;20566;-80
2021/08/01 09:39:40;;;;;;;4.87;4.23;;;;;;;;;;5055584;28;20849;-81
2021/08/01 09:42:06;;;;;;;5.17;4.70;;;;;;;;;;5055656;28;20951;-79
2021/08/01 09:44:32;;;;;;;4.80;4.40;;;;;;;;;;5055385;28;20426;-80
2021/08/01 09:46:58;;;;;;;6.13;4.37;;;;;;;;;;5055631;28;20498;-77
2021/08/01 09:49:26;;;;;;;4.60;4.20;;;;;;;;;;5055390;28;20905;-78
2021/08/01 09:51:53;;;;;;;4.83;4.50;;;;;;;;;;5055182;28;20419;-77
2021/08/01 09:54:20;;;;;;;6.50;4.10;;;;;;;;;;5055195;28;20782;-79
2021/08/01 09:56:55;;;;;;;4.40;4.00;;;;;;;;;;5054218;28;20873;-80
2021/08/01 10:02:35;;;;;;;4.60;4.20;;;;;;;;;;5055203;28;20480;-76
2021/08/01 10:05:13;;;;;;;3.90;3.50;;;;;;;;;;5053700;28;20426;-81
2021/08/01 10:07:42;;;;;;;4.33;3.53;;;;;;;;;;5055070;28;20443;-79
2021/08/01 10:10:16;;;;;;;3.93;3.50;;;;;;;;;;5055429;28;20438;-80
2021/08/01 10:12:45;;;;;;;5.50;3.70;;;;;;;;;;5055326;28;20526;-78
2021/08/01 10:15:12;;;;;;;5.37;3.33;;;;;;;;;;5054727;28;20944;-73
2021/08/01 10:17:38;;;;;;;4.20;3.80;;;;;;;;;;5054899;28;20458;-80
2021/08/01 10:20:05;;;;;;;3.53;3.23;;;;;;;;;;5055048;28;20407;-80
2021/08/01 10:22:31;;;;;;;3.57;3.27;;;;;;;;;;5054922;28;20526;-77
2021/08/01 10:25:01;;;;;;;3.50;3.07;;;;;;;;;;5054798;28;20403;-80
2021/08/01 10:27:27;;;;;;;4.60;4.30;;;;;;;;;;5054732;28;20418;-79
2021/08/01 10:29:53;;;;;;;3.77;3.43;;;;;;;;;;5054873;28;20422;-81
2021/08/01 10:32:24;;;;;;;5.73;5.33;;;;;;;;;;5054664;28;20423;-80
2021/08/01 10:34:53;;;;;;;4.07;3.70;;;;;;;;;;5054424;28;20478;-80
2021/08/01 10:37:39;;;;;;;3.57;3.27;;;;;;;;;;5054601;28;20513;-83
2021/08/01 10:40:07;;;;;;;2.80;2.60;;;;;;;;;;5047118;28;20464;-80
2021/08/01 10:42:35;;;;;;;4.43;3.50;;;;;;;;;;5054362;28;20442;-79
2021/08/01 10:45:01;;;;;;;4.17;2.60;;;;;;;;;;5054297;28;20964;-78
2021/08/01 10:47:27;;;;;;;3.30;3.00;;;;;;;;;;5054458;28;20800;-75
2021/08/01 10:49:53;;;;;;;4.87;2.73;;;;;;;;;;5054636;28;20439;-77
2021/08/01 10:52:19;;;;;;;3.80;3.50;;;;;;;;;;5054328;28;20433;-79
2021/08/01 10:54:55;;;;;;;3.30;2.53;;;;;;;;;;5054470;28;20416;-78
2021/08/01 10:57:21;;;;;;;3.73;3.20;;;;;;;;;;5053875;28;21068;-79
2021/08/01 10:59:47;;;;;;;3.10;2.77;;;;;;;;;;5053779;28;20499;-80
2021/08/01 11:02:21;;;;;;;2.90;2.70;;;;;;;;;;5053986;28;20498;-77
2021/08/01 11:04:48;;;;;;;4.20;3.13;;;;;;;;;;5054722;28;20463;-79
2021/08/01 11:07:34;;;;;;;8.10;3.77;;;;;;;;;;5065740;28;20403;-74
2021/08/01 11:10:10;;;;;;;3.97;3.67;;;;;;;;;;5054475;28;20777;-79
2021/08/01 11:12:36;;;;;;;4.27;3.97;;;;;;;;;;5052649;28;20897;-80
2021/08/01 11:15:06;;;;;;;6.23;3.73;;;;;;;;;;5054043;28;20509;-76
2021/08/01 11:17:51;;;;;;;4.60;4.00;;;;;;;;;;5053523;28;20473;-78
2021/08/01 11:20:21;;;;;;;4.83;4.00;;;;;;;;;;5053747;28;20525;-80
2021/08/01 11:22:47;;;;;;;4.07;3.77;;;;;;;;;;5053740;28;20461;-79
2021/08/01 11:25:26;;;;;;;3.20;3.00;;;;;;;;;;5054067;28;20921;-81
2021/08/01 11:28:10;;;;;;;3.93;3.60;;;;;;;;;;5053568;28;20506;-74
2021/08/01 11:30:51;;;;;;;4.50;4.10;;;;;;;;;;5053737;28;20419;-73
2021/08/01 11:33:33;;;;;;;3.97;3.67;;;;;;;;;;5052983;28;20426;-81
2021/08/01 11:36:18;;;;;;;5.00;3.73;;;;;;;;;;5053481;28;21026;-77
2021/08/01 11:38:53;;;;;;;4.17;3.87;;;;;;;;;;5053164;28;20812;-79
2021/08/01 11:41:43;;;;;;;4.57;4.17;;;;;;;;;;5051792;28;20458;-80
2021/08/01 11:44:14;;;;;;;4.30;3.87;;;;;;;;;;5053339;28;20901;-81
2021/08/01 11:46:58;;;;;;;3.90;3.60;;;;;;;;;;5053416;28;20447;-74
2021/08/01 11:49:25;;;;;;;5.07;4.67;;;;;;;;;;5053517;28;20489;-76
2021/08/01 11:51:54;;;;;;;4.60;4.13;;;;;;;;;;5053563;28;20473;-77
2021/08/01 11:54:25;;;;;;;4.13;3.73;;;;;;;;;;5051857;28;20435;-81
2021/08/01 11:56:51;;;;;;;6.00;3.97;;;;;;;;;;5053126;28;20406;-77
2021/08/01 11:59:17;;;;;;;7.90;4.10;;;;;;;;;;5053275;28;20422;-79
2021/08/01 12:01:43;;;;;;;5.30;3.70;;;;;;;;;;5053223;28;20412;-79
2021/08/01 12:04:09;;;;;;;4.73;4.33;;;;;;;;;;5052806;28;20514;-81
2021/08/01 12:06:36;;;;;;;5.83;4.50;;;;;;;;;;5052346;28;20415;-78
2021/08/01 12:09:21;;;;;;;3.80;3.50;;;;;;;;;;5052494;28;20726;-80
2021/08/01 12:11:48;;;;;;;9.30;4.50;;;;;;;;;;5052718;28;20418;-80
2021/08/01 12:14:15;;;;;;;4.80;4.30;;;;;;;;;;5052702;28;20419;-76
2021/08/01 12:16:51;;;;;;;3.80;3.50;;;;;;;;;;5051189;28;20435;-74
2021/08/01 12:19:19;;;;;;;4.43;4.03;;;;;;;;;;5051297;28;20545;-72
2021/08/01 12:21:45;;;;;;;5.90;4.37;;;;;;;;;;5052226;28;20444;-82
2021/08/01 12:24:30;;;;;;;4.03;3.60;;;;;;;;;;5052534;28;20458;-81
2021/08/01 12:27:06;;;;;;;4.77;3.67;;;;;;;;;;5051535;28;20418;-78
2021/08/01 12:29:42;;;;;;;3.83;3.53;;;;;;;;;;5052759;28;20414;-80
2021/08/01 12:32:19;;;;;;;4.07;3.70;;;;;;;;;;5053169;28;20418;-80
2021/08/01 12:34:45;;;;;;;5.00;4.53;;;;;;;;;;5052252;28;20512;-74
2021/08/01 12:37:12;;;;;;;4.80;4.40;;;;;;;;;;5051109;28;20808;-81
2021/08/01 12:39:45;;;;;;;4.07;3.67;;;;;;;;;;5052149;28;20444;-69
2021/08/01 12:42:11;;;;;;;5.63;5.07;;;;;;;;;;5052175;28;20430;-70
2021/08/01 12:44:48;;;;;;;9.13;4.27;;;;;;;;;;5052005;28;20422;-69
2021/08/01 12:47:14;;;;;;;5.53;4.90;;;;;;;;;;5053017;28;20422;-73
2021/08/01 12:49:40;;;;;;;6.57;4.83;;;;;;;;;;5051421;28;20431;-69
2021/08/01 12:52:06;;;;;;;8.83;5.07;;;;;;;;;;5051878;28;20415;-70
2021/08/01 12:54:33;;;;;;;7.07;4.53;;;;;;;;;;5052539;28;20450;-71
2021/08/01 12:57:05;;;;;;;5.23;4.40;;;;;;;;;;5052614;28;20498;-70
2021/08/01 12:59:32;;;;;;;5.20;4.80;;;;;;;;;;5052532;28;20419;-69
2021/08/01 13:01:58;;;;;;;5.33;4.23;;;;;;;;;;5052573;28;20817;-70
2021/08/01 13:04:24;;;;;;;5.70;5.07;;;;;;;;;;5052561;28;20430;-69
2021/08/01 13:06:59;;;;;;;5.60;5.10;;;;;;;;;;5052545;28;20426;-69
2021/08/01 13:09:25;;;;;;;5.00;4.60;;;;;;;;;;5052254;28;20426;-68
2021/08/01 13:11:52;;;;;;;5.40;4.90;;;;;;;;;;5052415;28;20421;-70
2021/08/01 13:14:30;;;;;;;5.47;5.07;;;;;;;;;;5052466;28;20419;-70
2021/08/01 13:16:57;;;;;;;6.23;5.33;;;;;;;;;;5052390;28;20415;-69
2021/08/01 13:19:27;;;;;;;4.40;4.07;;;;;;;;;;5052523;28;20458;-70
2021/08/01 13:22:02;;;;;;;5.50;4.43;;;;;;;;;;5052354;28;20807;-70
2021/08/01 13:24:33;;;;;;;5.77;4.67;;;;;;;;;;5052069;28;20757;-69
2021/08/01 13:26:59;;;;;;;4.17;3.77;;;;;;;;;;5052552;28;20794;-70
2021/08/01 13:29:25;;;;;;;4.93;4.43;;;;;;;;;;5052254;28;20414;-69
2021/08/01 13:31:51;;;;;;;4.03;3.63;;;;;;;;;;5052383;28;20886;-68
2021/08/01 13:34:18;;;;;;;3.67;3.07;;;;;;;;;;5052423;28;20471;-69
2021/08/01 13:36:56;;;;;;;4.27;3.87;;;;;;;;;;5052603;28;20416;-69
2021/08/01 13:39:47;;;;;;;3.47;3.27;;;;;;;;;;5051975;28;20473;-68
2021/08/01 13:42:14;;;;;;;4.27;3.93;;;;;;;;;;5052241;28;20465;-69
2021/08/01 13:44:41;;;;;;;4.00;3.70;;;;;;;;;;5052103;28;20951;-68
2021/08/01 13:47:11;;;;;;;3.70;3.40;;;;;;;;;;5052212;28;20765;-68
2021/08/01 13:49:38;;;;;;;3.77;3.47;;;;;;;;;;5052425;28;20423;-69
2021/08/01 13:52:03;;;;;;;8.77;4.17;;;;;;;;;;5051986;28;20419;-68
2021/08/01 13:54:29;;;;;;;3.77;3.30;;;;;;;;;;5052323;28;20427;-68
2021/08/01 13:56:55;;;;;;;4.30;3.40;;;;;;;;;;5052047;28;20412;-68
2021/08/01 13:59:21;;;;;;;4.63;4.33;;;;;;;;;;5052077;28;20445;-68
2021/08/01 14:01:47;;;;;;;4.40;4.00;;;;;;;;;;5051836;28;20444;-70
2021/08/01 14:04:13;;;;;;;4.60;4.23;;;;;;;;;;5053689;28;20443;-69
2021/08/01 14:06:39;;;;;;;5.63;3.40;;;;;;;;;;5055529;28;20419;-69
2021/08/01 14:09:05;;;;;;;4.20;3.80;;;;;;;;;;5055685;28;20427;-69
2021/08/01 14:11:31;;;;;;;5.07;3.80;;;;;;;;;;5055748;28;20465;-69
2021/08/01 14:13:58;;;;;;;5.17;4.63;;;;;;;;;;5055529;28;20427;-69
2021/08/01 14:16:24;;;;;;;5.83;5.03;;;;;;;;;;5055563;28;20410;-69
2021/08/01 14:18:50;;;;;;;6.93;6.33;;;;;;;;;;5055639;28;20496;-69
2021/08/01 14:21:16;;;;;;;6.03;4.27;;;;;;;;;;5055219;28;20403;-70
2021/08/01 14:23:42;;;;;;;4.10;3.80;;;;;;;;;;5055555;28;20430;-70
2021/08/01 14:26:09;;;;;;;5.40;4.30;;;;;;;;;;5055531;28;20734;-68
2021/08/01 14:28:35;;;;;;;4.33;3.97;;;;;;;;;;5055435;28;20422;-69
2021/08/01 14:34:06;;;;;;;3.83;3.53;;;;;;;;;;5054848;28;20456;-70
2021/08/01 14:36:35;;;;;;;3.50;3.30;;;;;;;;;;5055071;28;20407;-69
2021/08/01 14:39:05;;;;;;;3.57;3.27;;;;;;;;;;5054791;28;20553;-71
2021/08/01 14:41:31;;;;;;;3.20;3.00;;;;;;;;;;5053378;28;21002;-70
2021/08/01 14:43:57;;;;;;;3.97;3.30;;;;;;;;;;5055034;28;20510;-68
2021/08/01 14:46:24;;;;;;;2.77;2.57;;;;;;;;;;5054711;28;20422;-71
2021/08/01 14:48:57;;;;;;;3.40;2.63;;;;;;;;;;5054582;28;20580;-68
2021/08/01 14:54:09;;;;;;;3.40;3.10;;;;;;;;;;5054665;28;20457;-68
2021/08/01 14:56:35;;;;;;;3.20;3.00;;;;;;;;;;5054770;28;20422;-66
2021/08/01 14:59:05;;;;;;;4.30;3.60;;;;;;;;;;5054522;28;20569;-68
2021/08/01 15:01:36;;;;;;;3.30;2.90;;;;;;;;;;5054845;28;20515;-70
2021/08/01 15:04:05;;;;;;;3.13;2.83;;;;;;;;;;5054647;28;20402;-69
2021/08/01 15:06:41;;;;;;;4.33;3.40;;;;;;;;;;5054418;28;20411;-70
2021/08/01 15:09:13;;;;;;;4.33;3.93;;;;;;;;;;5054410;28;20415;-70
2021/08/01 15:11:52;;;;;;;3.43;3.13;;;;;;;;;;5054647;28;20410;-69
2021/08/01 15:14:22;;;;;;;4.10;3.10;;;;;;;;;;5053596;28;20418;-69
2021/08/01 15:16:51;;;;;;;5.80;3.60;;;;;;;;;;5054049;28;20457;-70
2021/08/01 15:19:21;;;;;;;3.73;3.23;;;;;;;;;;5054537;28;20845;-69
2021/08/01 15:21:51;;;;;;;4.77;3.20;;;;;;;;;;5054167;28;20787;-69
2021/08/01 15:24:27;;;;;;;4.27;3.27;;;;;;;;;;5054154;28;20427;-69
2021/08/01 15:26:53;;;;;;;2.90;2.47;;;;;;;;;;5053197;28;20438;-71
2021/08/01 15:29:19;;;;;;;2.10;1.93;;;;;;;;;;5053842;28;20507;-69
2021/08/01 15:31:45;;;;;;;2.43;2.20;;;;;;;;;;5053966;28;21039;-70
2021/08/01 15:34:14;;;;;;;3.73;2.30;;;;;;;;;;5053759;28;20549;-70
2021/08/01 15:36:41;;;;;;;2.33;2.13;;;;;;;;;;5054157;28;20418;-70
2021/08/01 15:39:08;;;;;;;3.70;1.60;;;;;;;;;;5053730;28;20896;-70
2021/08/01 15:41:35;;;;;;;2.03;1.83;;;;;;;;;;5053957;28;20411;-69
2021/08/01 15:44:01;;;;;;;4.73;1.93;;;;;;;;;;5054102;28;20430;-69
2021/08/01 15:49:31;;;;;;;2.13;1.97;;;;;;;;;;5053490;28;20430;-70
2021/08/01 15:51:58;;;;;;;4.00;1.80;;;;;;;;;;5053499;28;20557;-71
2021/08/01 15:54:26;;;;;;;1.93;1.67;;;;;;;;;;5053429;28;20457;-71
2021/08/01 15:56:56;;;;;;;2.43;1.77;;;;;;;;;;5053503;28;20411;-69
2021/08/01 15:59:25;;;;;;;2.07;1.70;;;;;;;;;;5053417;28;20949;-70
2021/08/01 16:01:53;;;;;;;2.40;1.50;;;;;;;;;;5053408;28;20905;-70
2021/08/01 16:04:32;;;;;;;1.60;1.50;;;;;;;;;;5053579;28;20485;-69